Allen, South Dakota
Current Conditions -  °F | °C
As of 6:52 AM on Thursday 23 Oct 2014 (Local Time) from KIEN Reporting Station
Clear Clear  
Wind Chill: 24°   Ceiling: Unl
Heat Index: 24°   Visibility: 10mi
Dew Point: 21°   Wind: 0mph
Humidity: 88%   Direction: NA
Pressure: 30.03"   Gusts: NA
Location:  43.28°N, 101.93°W
Report Text: KIEN 231252Z AUTO 00000KT 10SM CLR M04/M06 A3003 RMK AO2 SLP191 T10441061
Loading
Personal Weather Stations






























Interactive Weather Map New forecast layout! Learn more

10-Day Weather Forecast

Advertisements
Track Severe Weather on mobile